createdAt,value
2018-09-17T00:00:21.488Z,23.00
2018-09-17T00:02:49.665Z,24.37
2018-09-17T00:05:17.882Z,19.80
2018-09-17T00:07:46.080Z,20.77
2018-09-17T00:10:14.309Z,18.00
2018-09-17T00:12:42.794Z,19.33
2018-09-17T00:15:11.032Z,18.27
2018-09-17T00:17:39.269Z,18.37
2018-09-17T00:20:07.513Z,18.50
2018-09-17T00:22:35.745Z,18.60
2018-09-17T00:25:03.995Z,22.33
2018-09-17T00:27:32.199Z,23.30
2018-09-17T00:30:00.445Z,21.97
2018-09-17T00:32:28.661Z,19.80
2018-09-17T00:34:56.908Z,20.37
2018-09-17T00:37:25.118Z,23.10
2018-09-17T00:39:53.375Z,20.17
2018-09-17T00:42:21.772Z,19.30
2018-09-17T00:44:49.977Z,27.03
2018-09-17T00:47:18.201Z,22.67
2018-09-17T00:49:46.424Z,21.03
2018-09-17T00:52:14.632Z,21.10
2018-09-17T00:54:42.898Z,21.20
2018-09-17T00:57:11.172Z,18.73
2018-09-17T00:59:39.433Z,19.87
2018-09-17T01:02:07.762Z,20.20
2018-09-17T01:04:35.981Z,17.93
2018-09-17T01:07:04.202Z,19.20
2018-09-17T01:09:38.829Z,20.00
2018-09-17T01:12:07.070Z,20.27
2018-09-17T01:14:35.291Z,20.50
2018-09-17T01:17:03.529Z,20.73
2018-09-17T01:19:31.785Z,23.20
2018-09-17T01:22:00.060Z,23.33
2018-09-17T01:24:28.259Z,21.03
2018-09-17T01:26:56.468Z,22.37
2018-09-17T01:29:24.701Z,21.53
2018-09-17T01:31:52.941Z,24.20
2018-09-17T01:34:21.249Z,22.50
2018-09-17T01:36:49.439Z,23.10
2018-09-17T01:39:17.673Z,21.73
2018-09-17T01:41:45.933Z,22.97
2018-09-17T01:44:14.141Z,21.00
2018-09-17T01:46:42.380Z,20.20
2018-09-17T01:49:10.605Z,20.33
2018-09-17T01:51:38.788Z,17.60
2018-09-17T01:54:07.055Z,18.10
2018-09-17T01:56:35.324Z,24.80
2018-09-17T01:59:03.534Z,22.60
2018-09-17T02:01:31.786Z,20.33
2018-09-17T02:04:00.029Z,18.67
2018-09-17T02:06:28.246Z,17.40
2018-09-17T02:08:56.568Z,18.37
2018-09-17T02:11:24.682Z,19.50
2018-09-17T02:13:52.993Z,18.97
2018-09-17T02:16:21.255Z,21.67
2018-09-17T02:18:49.509Z,21.60
2018-09-17T02:21:17.741Z,21.53
2018-09-17T02:23:46.240Z,21.57
2018-09-17T02:26:14.475Z,19.93
2018-09-17T02:28:42.703Z,19.90
2018-09-17T02:31:10.930Z,20.57
2018-09-17T02:33:39.150Z,21.70
2018-09-17T02:36:07.373Z,23.57
2018-09-17T02:38:35.599Z,24.77
2018-09-17T02:41:03.809Z,22.83
2018-09-17T02:43:32.030Z,20.87
2018-09-17T02:46:00.432Z,21.43
2018-09-17T02:48:28.633Z,21.10
2018-09-17T02:50:56.877Z,21.37
2018-09-17T02:53:25.246Z,22.50
2018-09-17T02:55:53.422Z,22.63
2018-09-17T02:58:21.621Z,22.87
2018-09-17T03:00:49.861Z,21.20
2018-09-17T03:03:18.073Z,21.03
2018-09-17T03:05:46.271Z,23.60
2018-09-17T03:08:14.617Z,23.70
2018-09-17T03:10:42.849Z,23.00
2018-09-17T03:13:11.054Z,22.23
2018-09-17T03:15:54.144Z,22.57
2018-09-17T03:18:35.115Z,21.93
2018-09-17T03:21:04.691Z,22.13
2018-09-17T03:23:34.321Z,21.40
2018-09-17T03:26:02.628Z,22.07
2018-09-17T03:28:31.257Z,21.30
2018-09-17T03:30:59.489Z,21.73
2018-09-17T03:33:28.021Z,21.17
2018-09-17T03:35:56.262Z,22.03
2018-09-17T03:38:34.435Z,21.73
2018-09-17T03:41:03.589Z,23.90
2018-09-17T03:43:32.514Z,24.90
2018-09-17T03:46:00.733Z,24.00
2018-09-17T03:48:29.931Z,23.60
2018-09-17T03:50:58.449Z,22.90
2018-09-17T03:53:26.675Z,23.97
2018-09-17T03:55:54.897Z,24.50
2018-09-17T03:58:23.090Z,22.87
2018-09-17T04:00:51.294Z,24.67
2018-09-17T04:03:19.521Z,23.50
2018-09-17T04:05:47.749Z,22.47
2018-09-17T04:08:16.028Z,22.60
2018-09-17T04:10:44.402Z,22.00
2018-09-17T04:13:12.711Z,22.33
2018-09-17T04:15:40.954Z,20.50
2018-09-17T04:18:09.172Z,21.03
2018-09-17T04:20:37.378Z,19.50
2018-09-17T04:23:05.609Z,21.10
2018-09-17T04:25:33.822Z,19.43
2018-09-17T04:28:02.066Z,20.37
2018-09-17T04:30:30.293Z,20.20
2018-09-17T04:32:58.632Z,20.17
2018-09-17T04:35:26.826Z,21.37
2018-09-17T04:37:55.057Z,19.37
2018-09-17T04:40:23.271Z,20.87
2018-09-17T04:42:51.489Z,20.40
2018-09-17T04:45:19.693Z,19.47
2018-09-17T04:47:47.940Z,20.20
2018-09-17T04:50:16.145Z,20.27
2018-09-17T04:52:44.393Z,20.23
2018-09-17T04:55:12.673Z,21.00
2018-09-17T04:57:40.901Z,19.43
2018-09-17T05:00:09.081Z,20.47
2018-09-17T05:02:37.333Z,19.20
2018-09-17T05:05:05.854Z,19.20
2018-09-17T05:07:34.122Z,20.23
2018-09-17T05:10:02.368Z,21.00
2018-09-17T05:12:30.583Z,18.70
2018-09-17T05:14:58.815Z,19.97
2018-09-17T05:17:27.053Z,19.60
2018-09-17T05:19:55.265Z,18.33
2018-09-17T05:22:23.481Z,19.63
2018-09-17T05:24:51.708Z,21.03
2018-09-17T05:27:20.023Z,19.70
2018-09-17T05:29:48.305Z,19.00
2018-09-17T05:32:16.533Z,19.20
2018-09-17T05:34:44.807Z,17.10
2018-09-17T05:37:13.029Z,18.40
2018-09-17T05:39:41.360Z,18.03
2018-09-17T05:42:09.609Z,18.23
2018-09-17T05:44:37.809Z,17.57
2018-09-17T05:47:06.159Z,17.87
2018-09-17T05:49:34.534Z,18.73
2018-09-17T05:52:02.739Z,15.50
2018-09-17T05:54:31.126Z,17.27
2018-09-17T05:56:59.369Z,16.53
2018-09-17T05:59:27.611Z,16.40
2018-09-17T06:01:55.846Z,15.67
2018-09-17T06:04:24.065Z,16.37
2018-09-17T06:06:52.388Z,16.80
2018-09-17T06:09:20.525Z,16.47
2018-09-17T06:11:48.944Z,16.27
2018-09-17T06:14:17.098Z,14.60
2018-09-17T06:16:45.375Z,15.97
2018-09-17T06:19:13.855Z,16.03
2018-09-17T06:21:42.029Z,16.43
2018-09-17T06:24:10.304Z,15.40
2018-09-17T06:26:38.734Z,36.37
2018-09-17T06:29:06.858Z,21.07
2018-09-17T06:31:35.082Z,32.70
2018-09-17T06:34:03.294Z,16.70
2018-09-17T06:36:31.510Z,16.23
2018-09-17T06:38:59.769Z,21.33
2018-09-17T06:41:28.755Z,16.40
2018-09-17T06:43:56.936Z,15.97
2018-09-17T06:46:25.648Z,21.07
2018-09-17T06:48:53.893Z,17.70
2018-09-17T06:51:22.115Z,18.50
2018-09-17T06:53:50.334Z,17.57
2018-09-17T06:56:18.564Z,17.63
2018-09-17T06:58:47.378Z,20.47
2018-09-17T07:01:15.686Z,20.70
2018-09-17T07:03:43.897Z,24.23
2018-09-17T07:06:12.165Z,20.07
2018-09-17T07:08:40.406Z,19.93
2018-09-17T07:11:09.259Z,26.17
2018-09-17T07:13:37.448Z,20.40
2018-09-17T07:16:05.681Z,21.20
2018-09-17T07:18:34.206Z,20.37
2018-09-17T07:21:02.441Z,17.43
2018-09-17T07:23:30.978Z,17.10
2018-09-17T07:25:59.191Z,19.80
2018-09-17T07:28:27.439Z,19.40
2018-09-17T07:30:55.939Z,17.80
2018-09-17T07:33:24.165Z,19.03
2018-09-17T07:35:52.500Z,19.90
2018-09-17T07:38:20.737Z,18.33
2018-09-17T07:40:49.005Z,20.23
2018-09-17T07:43:17.213Z,22.20
2018-09-17T07:45:45.431Z,18.20
2018-09-17T07:48:13.682Z,15.60
2018-09-17T07:50:41.894Z,17.00
2018-09-17T07:53:10.240Z,19.00
2018-09-17T07:55:38.515Z,17.20
2018-09-17T07:58:06.828Z,18.17
2018-09-17T08:00:35.239Z,18.77
2018-09-17T08:03:03.453Z,20.37
2018-09-17T08:05:31.734Z,19.10
2018-09-17T08:08:00.008Z,17.70
2018-09-17T08:10:28.242Z,26.23
2018-09-17T08:12:56.738Z,15.90
2018-09-17T08:15:25.290Z,16.80
2018-09-17T08:17:53.511Z,18.20
2018-09-17T08:20:21.766Z,18.40
2018-09-17T08:22:50.046Z,20.67
2018-09-17T08:25:18.414Z,16.57
2018-09-17T08:27:46.724Z,15.97
2018-09-17T08:30:14.953Z,14.37
2018-09-17T08:32:43.213Z,14.83
2018-09-17T08:35:11.464Z,13.93
2018-09-17T08:37:39.741Z,12.77
2018-09-17T08:40:08.056Z,12.30
2018-09-17T08:42:36.869Z,13.70
2018-09-17T08:45:05.647Z,12.80
2018-09-17T08:47:34.130Z,12.13
2018-09-17T08:50:02.331Z,12.43
2018-09-17T08:52:31.073Z,13.07
2018-09-17T08:55:05.066Z,10.60
2018-09-17T08:57:38.673Z,15.20
2018-09-17T09:00:13.469Z,12.53
2018-09-17T09:04:52.545Z,11.67
2018-09-17T09:07:26.122Z,12.00
2018-09-17T09:09:58.754Z,10.57
2018-09-17T09:12:31.185Z,10.27
2018-09-17T09:15:04.844Z,10.93
2018-09-17T09:17:33.064Z,10.57
2018-09-17T09:20:01.532Z,12.50
2018-09-17T09:22:29.865Z,12.00
2018-09-17T09:24:58.038Z,10.30
2018-09-17T09:27:26.345Z,10.47
2018-09-17T09:29:55.437Z,9.90
2018-09-17T09:32:23.771Z,9.77
2018-09-17T09:34:52.354Z,10.30
2018-09-17T09:37:20.572Z,10.63
2018-09-17T09:39:49.029Z,10.53
2018-09-17T09:42:17.535Z,10.70
2018-09-17T09:44:45.769Z,10.27
2018-09-17T09:47:14.009Z,8.90
2018-09-17T09:49:42.493Z,9.60
2018-09-17T09:52:10.731Z,9.87
2018-09-17T09:54:39.099Z,9.80
2018-09-17T09:57:07.306Z,10.07
2018-09-17T09:59:35.966Z,9.77
2018-09-17T10:02:09.556Z,8.80
2018-09-17T10:04:37.872Z,8.60
2018-09-17T10:07:06.069Z,8.70
2018-09-17T10:09:39.608Z,9.27
2018-09-17T10:12:13.217Z,9.33
2018-09-17T10:14:46.709Z,9.23
2018-09-17T10:17:20.241Z,9.13
2018-09-17T10:19:48.453Z,9.67
2018-09-17T10:22:17.049Z,8.30
2018-09-17T10:24:45.958Z,7.80
2018-09-17T10:27:14.489Z,14.53
2018-09-17T10:29:42.791Z,7.60
2018-09-17T10:32:11.253Z,9.10
2018-09-17T10:34:39.581Z,7.60
2018-09-17T10:37:07.865Z,8.50
2018-09-17T10:39:36.149Z,10.97
2018-09-17T10:42:04.334Z,6.80
2018-09-17T10:44:32.566Z,7.00
2018-09-17T10:47:00.893Z,9.20
2018-09-17T10:49:29.138Z,6.97
2018-09-17T10:51:57.933Z,6.60
2018-09-17T10:54:26.193Z,7.23
2018-09-17T10:56:54.541Z,7.10
2018-09-17T10:59:22.772Z,7.33
2018-09-17T11:01:51.201Z,5.70
2018-09-17T11:04:19.411Z,5.90
2018-09-17T11:06:47.879Z,6.10
2018-09-17T11:09:16.274Z,5.83
2018-09-17T11:11:44.517Z,6.00
2018-09-17T11:14:12.741Z,5.80
2018-09-17T11:16:41.005Z,5.20
2018-09-17T11:19:09.266Z,6.30
2018-09-17T11:21:37.718Z,7.30
2018-09-17T11:24:06.336Z,5.13
2018-09-17T11:26:34.567Z,4.30
2018-09-17T11:29:02.829Z,4.50
2018-09-17T11:31:31.092Z,4.73
2018-09-17T11:33:59.341Z,5.13
2018-09-17T11:36:27.545Z,5.60
2018-09-17T11:38:55.790Z,5.23
2018-09-17T11:41:24.017Z,5.40
2018-09-17T11:43:52.247Z,5.70
2018-09-17T11:46:20.453Z,5.33
2018-09-17T11:48:48.739Z,4.93
2018-09-17T11:51:16.964Z,4.97
2018-09-17T11:53:47.815Z,4.97
2018-09-17T11:56:16.005Z,7.00
2018-09-17T11:58:44.222Z,6.03
2018-09-17T12:01:17.901Z,4.87
2018-09-17T12:03:51.421Z,5.87
2018-09-17T12:06:23.882Z,6.30
2018-09-17T12:08:52.125Z,6.43
2018-09-17T12:11:20.345Z,6.40
2018-09-17T12:13:48.601Z,6.20
2018-09-17T12:16:16.836Z,5.73
2018-09-17T12:18:45.177Z,6.63
2018-09-17T12:21:13.404Z,5.60
2018-09-17T12:23:42.329Z,5.70
2018-09-17T12:26:10.566Z,9.10
2018-09-17T12:28:38.949Z,7.00
2018-09-17T12:31:07.165Z,6.83
2018-09-17T12:33:35.585Z,6.47
2018-09-17T12:36:04.397Z,6.20
2018-09-17T12:38:32.648Z,5.23
2018-09-17T12:41:00.860Z,5.60
2018-09-17T12:43:29.045Z,5.87
2018-09-17T12:45:57.330Z,5.27
2018-09-17T12:48:25.515Z,5.30
2018-09-17T12:50:53.708Z,5.80
2018-09-17T12:53:21.929Z,6.00
2018-09-17T12:55:50.168Z,6.50
2018-09-17T12:58:18.558Z,6.50
2018-09-17T13:00:46.736Z,6.00
2018-09-17T13:03:15.219Z,6.70
2018-09-17T13:05:43.445Z,6.87
2018-09-17T13:08:11.657Z,6.63
2018-09-17T13:10:40.032Z,7.50
2018-09-17T13:13:08.226Z,7.00
2018-09-17T13:15:40.661Z,6.43
2018-09-17T13:18:08.860Z,8.27
2018-09-17T13:20:37.240Z,6.57
2018-09-17T13:23:05.453Z,8.27
2018-09-17T13:25:33.661Z,8.27
2018-09-17T13:28:02.008Z,7.33
2018-09-17T13:30:30.235Z,7.97
2018-09-17T13:32:58.427Z,8.57
2018-09-17T13:35:26.658Z,7.70
2018-09-17T13:37:54.962Z,8.80
2018-09-17T13:40:23.161Z,11.80
2018-09-17T13:42:51.445Z,7.77
2018-09-17T13:45:19.675Z,8.30
2018-09-17T13:47:47.887Z,9.23
2018-09-17T13:50:16.396Z,7.33
2018-09-17T13:52:44.644Z,20.20
2018-09-17T13:55:12.916Z,7.40
2018-09-17T13:57:41.206Z,7.43
2018-09-17T14:00:09.437Z,7.27
2018-09-17T14:02:37.831Z,7.93
2018-09-17T14:05:06.239Z,7.60
2018-09-17T14:07:34.466Z,6.33
2018-09-17T14:10:02.861Z,7.70
2018-09-17T14:12:31.122Z,7.30
2018-09-17T14:14:59.345Z,6.10
2018-09-17T14:17:27.546Z,7.20
2018-09-17T14:19:55.874Z,6.53
2018-09-17T14:22:24.117Z,7.27
2018-09-17T14:24:52.375Z,7.00
2018-09-17T14:27:20.934Z,7.07
2018-09-17T14:29:49.149Z,6.77
2018-09-17T14:32:22.768Z,7.40
2018-09-17T14:34:51.110Z,8.13
2018-09-17T14:37:19.357Z,7.33
2018-09-17T14:39:47.587Z,7.33
2018-09-17T14:42:16.309Z,8.50
2018-09-17T14:44:44.546Z,9.07
2018-09-17T14:47:12.944Z,10.17
2018-09-17T14:49:41.433Z,8.83
2018-09-17T14:52:09.737Z,7.00
2018-09-17T14:54:38.062Z,7.80
2018-09-17T14:57:06.176Z,8.77
2018-09-17T14:59:34.349Z,8.10
2018-09-17T15:02:02.613Z,9.03
2018-09-17T15:04:30.838Z,7.50
2018-09-17T15:06:59.221Z,8.30
2018-09-17T15:09:27.433Z,7.73
2018-09-17T15:11:56.537Z,7.33
2018-09-17T15:14:24.961Z,8.43
2018-09-17T15:16:53.085Z,7.93
2018-09-17T15:19:21.313Z,7.80
2018-09-17T15:21:49.509Z,8.80
2018-09-17T15:24:17.756Z,7.67
2018-09-17T15:28:15.444Z,8.27
2018-09-17T15:30:43.776Z,8.60
2018-09-17T15:33:12.540Z,9.43
2018-09-17T15:35:40.785Z,8.80
2018-09-17T15:38:09.080Z,9.60
2018-09-17T15:40:37.285Z,11.07
2018-09-17T15:43:05.561Z,9.57
2018-09-17T15:45:33.769Z,9.10
2018-09-17T15:48:02.055Z,8.40
2018-09-17T15:50:30.300Z,8.50
2018-09-17T15:52:58.508Z,8.80
2018-09-17T15:55:26.749Z,8.40
2018-09-17T15:57:55.039Z,8.10
2018-09-17T16:00:23.202Z,9.20
2018-09-17T16:02:51.441Z,9.20
2018-09-17T16:05:19.681Z,12.03
2018-09-17T16:07:47.898Z,9.97
2018-09-17T16:10:16.123Z,8.90
2018-09-17T16:12:44.357Z,9.37
2018-09-17T16:15:12.589Z,9.03
2018-09-17T16:17:40.944Z,9.23
2018-09-17T16:20:09.188Z,11.73
2018-09-17T16:22:37.472Z,10.40
2018-09-17T16:25:05.907Z,9.13
2018-09-17T16:27:34.298Z,9.87
2018-09-17T16:30:02.800Z,9.53
2018-09-17T16:32:31.046Z,10.60
2018-09-17T16:34:59.303Z,10.30
2018-09-17T16:37:27.529Z,9.13
2018-09-17T16:39:56.032Z,9.60
2018-09-17T16:42:24.276Z,8.67
2018-09-17T16:44:52.495Z,10.07
2018-09-17T16:47:20.772Z,9.43
2018-09-17T16:49:48.966Z,9.27
2018-09-17T16:52:17.325Z,10.50
2018-09-17T16:54:45.660Z,9.80
2018-09-17T16:57:13.885Z,9.40
2018-09-17T16:59:42.225Z,9.23
2018-09-17T17:02:10.536Z,8.93
2018-09-17T17:04:38.786Z,9.70
2018-09-17T17:07:07.049Z,9.20
2018-09-17T17:09:35.257Z,9.67
2018-09-17T17:12:03.516Z,11.40
2018-09-17T17:14:31.749Z,11.30
2018-09-17T17:16:59.993Z,12.40
2018-09-17T17:19:28.522Z,11.17
2018-09-17T17:21:56.935Z,12.50
2018-09-17T17:24:25.305Z,11.63
2018-09-17T17:26:53.533Z,11.40
2018-09-17T17:29:21.788Z,11.33
2018-09-17T17:31:50.124Z,10.13
2018-09-17T17:34:18.449Z,10.80
2018-09-17T17:36:46.865Z,10.30
2018-09-17T17:39:15.107Z,10.37
2018-09-17T17:41:43.289Z,11.07
2018-09-17T17:44:11.590Z,10.40
2018-09-17T17:46:39.854Z,10.00
2018-09-17T17:49:08.084Z,9.90
2018-09-17T17:51:36.341Z,11.37
2018-09-17T17:54:04.573Z,10.97
2018-09-17T17:56:32.808Z,10.60
2018-09-17T17:59:01.133Z,11.00
2018-09-17T18:01:29.393Z,10.60
2018-09-17T18:03:57.737Z,9.83
2018-09-17T18:06:25.925Z,10.80
2018-09-17T18:08:54.252Z,10.80
2018-09-17T18:11:22.449Z,10.77
2018-09-17T18:13:50.870Z,11.17
2018-09-17T18:16:19.081Z,11.60
2018-09-17T18:18:47.313Z,11.77
2018-09-17T18:21:15.583Z,11.67
2018-09-17T18:23:43.810Z,12.77
2018-09-17T18:26:11.997Z,12.50
2018-09-17T18:28:40.466Z,11.70
2018-09-17T18:31:08.654Z,12.80
2018-09-17T18:33:36.862Z,13.20
2018-09-17T18:36:05.192Z,12.10
2018-09-17T18:38:33.404Z,12.13
2018-09-17T18:41:01.947Z,12.47
2018-09-17T18:43:30.161Z,13.50
2018-09-17T18:45:58.441Z,13.40
2018-09-17T18:48:26.749Z,12.33
2018-09-17T18:50:55.094Z,13.33
2018-09-17T18:53:23.532Z,13.43
2018-09-17T18:55:51.744Z,14.50
2018-09-17T18:58:20.141Z,14.83
2018-09-17T19:00:48.412Z,15.77
2018-09-17T19:03:17.361Z,15.60
2018-09-17T19:05:45.807Z,13.80
2018-09-17T19:08:14.161Z,15.07
2018-09-17T19:10:42.636Z,13.93
2018-09-17T19:13:11.064Z,14.10
2018-09-17T19:15:45.345Z,13.37
2018-09-17T19:18:18.125Z,12.40
2018-09-17T19:20:47.417Z,13.03
2018-09-17T19:23:20.673Z,12.10
2018-09-17T19:25:48.893Z,13.33
2018-09-17T19:28:22.362Z,14.63
2018-09-17T19:30:50.585Z,15.23
2018-09-17T19:33:18.825Z,15.50
2018-09-17T19:35:47.062Z,14.37
2018-09-17T19:38:20.563Z,16.57
2018-09-17T19:40:48.697Z,14.70
2018-09-17T19:43:17.166Z,16.30
2018-09-17T19:45:50.719Z,15.67
2018-09-17T19:48:18.935Z,16.20
2018-09-17T19:50:52.390Z,16.93
2018-09-17T19:53:20.912Z,16.83
2018-09-17T19:55:49.306Z,17.07
2018-09-17T19:58:22.722Z,15.97
2018-09-17T20:00:51.240Z,16.23
2018-09-17T20:03:19.404Z,16.30
2018-09-17T20:05:53.005Z,14.80
2018-09-17T20:08:21.188Z,16.97
2018-09-17T20:10:49.422Z,15.47
2018-09-17T20:13:17.651Z,16.00
2018-09-17T20:15:45.842Z,16.73
2018-09-17T20:18:14.099Z,16.50
2018-09-17T20:20:42.301Z,17.03
2018-09-17T20:23:10.722Z,16.37
2018-09-17T20:25:38.855Z,17.20
2018-09-17T20:28:07.933Z,18.90
2018-09-17T20:30:36.209Z,18.33
2018-09-17T20:33:04.471Z,18.37
2018-09-17T20:35:32.858Z,16.80
2018-09-17T20:38:01.214Z,18.20
2018-09-17T20:40:29.410Z,17.83
2018-09-17T20:42:57.668Z,19.10
2018-09-17T20:45:25.819Z,17.83
2018-09-17T20:47:54.054Z,18.40
2018-09-17T20:50:22.498Z,17.77
2018-09-17T20:52:50.713Z,17.83
2018-09-17T20:55:19.028Z,17.50
2018-09-17T20:57:47.352Z,18.17
2018-09-17T21:00:15.578Z,16.97
2018-09-17T21:02:43.972Z,17.60
2018-09-17T21:05:12.169Z,17.70
2018-09-17T21:07:40.389Z,18.43
2018-09-17T21:10:08.596Z,17.00
2018-09-17T21:12:36.861Z,18.23
2018-09-17T21:15:05.037Z,16.50
2018-09-17T21:17:33.258Z,16.90
2018-09-17T21:20:01.530Z,15.93
2018-09-17T21:22:29.894Z,16.70
2018-09-17T21:24:58.224Z,17.00
2018-09-17T21:27:26.517Z,16.40
2018-09-17T21:29:54.806Z,17.10
2018-09-17T21:32:23.013Z,16.53
2018-09-17T21:34:51.295Z,15.77
2018-09-17T21:37:19.558Z,15.97
2018-09-17T21:39:47.709Z,16.30
2018-09-17T21:42:16.088Z,16.83
2018-09-17T21:44:44.365Z,15.70
2018-09-17T21:47:12.767Z,14.97
2018-09-17T21:49:41.019Z,16.90
2018-09-17T21:52:09.236Z,15.60
2018-09-17T21:54:37.493Z,16.67
2018-09-17T21:57:06.053Z,16.50
2018-09-17T21:59:34.265Z,16.40
2018-09-17T22:02:02.509Z,17.00
2018-09-17T22:04:30.805Z,16.40
2018-09-17T22:06:59.056Z,16.90
2018-09-17T22:09:27.260Z,16.60
2018-09-17T22:11:55.543Z,15.47
2018-09-17T22:14:23.799Z,16.63
2018-09-17T22:16:52.139Z,16.70
2018-09-17T22:19:20.385Z,18.30
2018-09-17T22:21:48.581Z,16.60
2018-09-17T22:24:16.803Z,16.53
2018-09-17T22:26:45.008Z,16.50
2018-09-17T22:29:13.450Z,17.40
2018-09-17T22:31:41.457Z,15.93
2018-09-17T22:34:09.785Z,17.53
2018-09-17T22:36:37.915Z,17.67
2018-09-17T22:39:08.050Z,16.97
2018-09-17T22:41:36.261Z,18.17
2018-09-17T22:44:04.559Z,17.80
2018-09-17T22:46:32.818Z,16.63
2018-09-17T22:49:01.047Z,16.30
2018-09-17T22:51:29.250Z,16.93
2018-09-17T22:53:57.494Z,17.47
2018-09-17T22:56:25.741Z,18.93
2018-09-17T22:58:54.008Z,17.10
2018-09-17T23:01:22.247Z,16.33
2018-09-17T23:03:50.449Z,16.67
2018-09-17T23:06:18.649Z,15.93
2018-09-17T23:08:46.895Z,17.17
2018-09-17T23:11:15.117Z,16.80
2018-09-17T23:13:43.333Z,16.60
2018-09-17T23:16:11.553Z,16.10
2018-09-17T23:18:39.776Z,17.17
2018-09-17T23:21:08.118Z,17.63
2018-09-17T23:23:36.320Z,17.13
2018-09-17T23:26:04.561Z,18.00
2018-09-17T23:28:32.740Z,17.50
2018-09-17T23:31:00.950Z,17.03
2018-09-17T23:33:29.345Z,16.63
2018-09-17T23:35:57.564Z,16.40
2018-09-17T23:38:25.753Z,18.07
2018-09-17T23:40:53.996Z,17.40
2018-09-17T23:43:22.245Z,18.00
2018-09-17T23:45:50.468Z,18.13
2018-09-17T23:48:18.695Z,16.00
2018-09-17T23:50:46.917Z,16.40
2018-09-17T23:53:15.325Z,17.83
2018-09-17T23:55:43.541Z,18.20
2018-09-17T23:58:11.785Z,17.70
